Time;durP1;ratioP1;P1;durP2;ratioP2;P2;SDS_P1;SDS_P2;PMS_P1;PMS_P2;Temp;Humidity;BMP_temperature;BMP_pressure;BME280_temperature;BME280_humidity;BME280_pressure;Samples;Min_cycle;Max_cycle;Signal;HPM_P1;HPM_P2
2022/09/02 00:01:54;;;;;;;2.58;0.70;;;;;;;11.82;100.00;101648.19;5032401;28;20434;-87
2022/09/02 00:04:27;;;;;;;1.30;0.80;;;;;;;11.77;100.00;101648.97;5016242;28;20427;-88
2022/09/02 00:07:00;;;;;;;1.10;0.80;;;;;;;11.72;100.00;101649.78;5032208;28;20438;-88
2022/09/02 00:09:36;;;;;;;2.20;0.80;;;;;;;11.68;100.00;101648.66;5023259;28;20424;-88
2022/09/02 00:12:09;;;;;;;1.75;0.80;;;;;;;11.70;100.00;101651.94;5030177;28;20430;-88
2022/09/02 00:14:43;;;;;;;2.03;0.73;;;;;;;11.67;100.00;101651.63;5026627;28;20961;-87
2022/09/02 00:17:11;;;;;;;1.83;0.85;;;;;;;11.68;100.00;101639.66;5005817;28;20437;-88
2022/09/02 00:19:44;;;;;;;1.60;0.80;;;;;;;11.72;100.00;101648.94;5033709;28;20410;-88
2022/09/02 00:22:17;;;;;;;1.50;0.88;;;;;;;11.70;100.00;101634.78;5019385;28;20428;-88
2022/09/02 00:24:52;;;;;;;1.25;0.80;;;;;;;11.70;100.00;101643.75;5024052;28;20415;-89
2022/09/02 00:27:25;;;;;;;1.30;0.80;;;;;;;11.61;100.00;101628.16;5021683;28;20425;-88
2022/09/02 00:29:53;;;;;;;1.93;1.00;;;;;;;11.62;100.00;101627.91;5036328;28;20415;-89
2022/09/02 00:32:21;;;;;;;0.93;0.80;;;;;;;11.67;100.00;101630.66;5032436;28;20779;-88
2022/09/02 00:34:50;;;;;;;2.37;0.80;;;;;;;11.61;100.00;101630.88;5033502;28;20435;-89
2022/09/02 00:37:18;;;;;;;2.00;0.90;;;;;;;11.58;100.00;101622.13;5017832;28;20431;-89
2022/09/02 00:39:53;;;;;;;2.50;0.90;;;;;;;11.35;100.00;101600.72;5030437;28;20414;-88
2022/09/02 00:42:22;;;;;;;1.65;0.82;;;;;;;11.51;100.00;101626.19;5031189;28;20415;-89
2022/09/02 00:44:51;;;;;;;1.30;0.77;;;;;;;11.59;100.00;101633.88;5023174;28;20913;-89
2022/09/02 00:47:20;;;;;;;1.08;0.73;;;;;;;11.43;100.00;101627.50;5020786;28;20421;-89
2022/09/02 00:49:54;;;;;;;1.10;0.80;;;;;;;11.34;100.00;101629.91;5015038;28;20430;-89
2022/09/02 00:52:25;;;;;;;1.10;0.80;;;;;;;11.38;100.00;101622.84;5036088;28;21078;-88
2022/09/02 00:55:05;;;;;;;1.40;0.90;;;;;;;11.30;100.00;101622.53;5039477;28;20414;-88
2022/09/02 00:57:38;;;;;;;1.33;0.88;;;;;;;11.33;100.00;101628.25;5035981;28;20423;-88
2022/09/02 01:00:11;;;;;;;1.10;0.82;;;;;;;11.29;100.00;101632.56;5015317;28;20438;-88
2022/09/02 01:02:48;;;;;;;1.40;0.80;;;;;;;11.30;100.00;101634.22;5032339;28;22645;-89
2022/09/02 01:05:23;;;;;;;1.10;0.90;;;;;;;11.32;100.00;101634.78;5033782;28;20403;-89
2022/09/02 01:07:54;;;;;;;1.65;0.98;;;;;;;11.33;100.00;101643.78;5031312;28;20811;-88
2022/09/02 01:10:27;;;;;;;1.30;0.90;;;;;;;11.29;100.00;101637.22;5017015;28;20431;-88
2022/09/02 01:13:04;;;;;;;0.95;0.80;;;;;;;11.21;100.00;101636.63;5015354;28;20442;-88
2022/09/02 01:15:39;;;;;;;1.58;0.80;;;;;;;11.02;100.00;101608.13;5011137;28;20820;-89
2022/09/02 01:18:09;;;;;;;1.43;0.90;;;;;;;11.05;100.00;101616.59;5030524;28;20426;-89
2022/09/02 01:20:43;;;;;;;2.67;1.20;;;;;;;11.15;100.00;101632.19;5022480;28;20791;-89
2022/09/02 01:23:18;;;;;;;1.42;0.93;;;;;;;11.16;100.00;101617.50;5030632;28;20430;-89
2022/09/02 01:25:51;;;;;;;1.60;1.00;;;;;;;11.22;100.00;101627.34;5031630;28;20426;-89
2022/09/02 01:28:25;;;;;;;1.13;0.95;;;;;;;11.20;100.00;101621.34;5032477;28;20448;-89
2022/09/02 01:30:54;;;;;;;1.70;0.90;;;;;;;11.19;100.00;101625.16;5009313;28;20430;-90
2022/09/02 01:33:28;;;;;;;2.10;1.00;;;;;;;11.09;100.00;101614.19;5035273;28;20780;-88
2022/09/02 01:36:03;;;;;;;1.80;1.00;;;;;;;11.08;100.00;101630.78;5018569;28;20427;-89
2022/09/02 01:38:33;;;;;;;1.60;0.90;;;;;;;11.03;100.00;101621.50;5024552;28;20501;-89
2022/09/02 01:41:06;;;;;;;1.55;0.90;;;;;;;10.93;100.00;101615.13;5026248;28;20419;-90
2022/09/02 01:43:39;;;;;;;0.90;0.80;;;;;;;11.01;100.00;101629.09;5029188;28;20430;-89
2022/09/02 01:46:13;;;;;;;3.10;1.20;;;;;;;10.92;100.00;101625.19;5028330;28;20415;-89
2022/09/02 01:48:46;;;;;;;3.25;0.90;;;;;;;10.86;100.00;101624.31;5030304;28;20493;-88
2022/09/02 01:51:21;;;;;;;1.38;0.82;;;;;;;10.85;100.00;101619.97;5014663;28;20756;-88
2022/09/02 01:53:56;;;;;;;1.23;0.90;;;;;;;10.82;100.00;101611.50;5016568;28;20422;-89
2022/09/02 01:56:25;;;;;;;1.02;0.80;;;;;;;10.63;100.00;101611.84;5035048;28;20419;-90
2022/09/02 01:59:01;;;;;;;1.30;0.90;;;;;;;10.52;100.00;101591.06;5019257;28;20407;-89
2022/09/02 02:01:35;;;;;;;1.90;0.82;;;;;;;10.57;100.00;101603.91;5026737;28;20421;-89
2022/09/02 02:04:04;;;;;;;2.17;1.00;;;;;;;10.61;100.00;101607.78;5014380;28;20419;-88
2022/09/02 02:06:40;;;;;;;1.52;0.90;;;;;;;10.46;100.00;101590.19;5030614;28;20427;-89
2022/09/02 02:09:10;;;;;;;1.50;0.98;;;;;;;10.42;100.00;101574.66;5028721;28;20423;-88
2022/09/02 02:11:39;;;;;;;1.73;1.02;;;;;;;10.55;100.00;101599.53;5024510;28;20428;-89
2022/09/02 02:14:07;;;;;;;2.17;1.00;;;;;;;10.53;100.00;101600.88;5005105;28;20437;-89
2022/09/02 02:16:36;;;;;;;2.30;1.05;;;;;;;10.34;100.00;101573.16;5012622;28;20430;-89
2022/09/02 02:19:09;;;;;;;2.15;1.05;;;;;;;10.59;100.00;101599.03;5031157;28;20438;-89
2022/09/02 02:21:43;;;;;;;1.60;0.90;;;;;;;10.54;100.00;101589.72;5031965;28;20419;-89
2022/09/02 02:24:14;;;;;;;1.37;0.90;;;;;;;10.62;100.00;101599.34;5015030;28;20422;-89
2022/09/02 02:26:42;;;;;;;2.97;1.00;;;;;;;10.43;100.00;101582.56;5037160;28;20484;-89
2022/09/02 02:29:18;;;;;;;2.15;0.90;;;;;;;10.59;100.00;101599.84;5013465;28;20423;-87
2022/09/02 02:31:46;;;;;;;1.60;0.93;;;;;;;10.62;100.00;101601.22;5008776;28;20431;-89
2022/09/02 02:34:19;;;;;;;1.83;1.00;;;;;;;10.49;100.00;101576.06;5013762;28;20423;-89
2022/09/02 02:36:48;;;;;;;2.03;1.00;;;;;;;10.51;100.00;101587.53;5010498;28;20407;-89
2022/09/02 02:39:17;;;;;;;2.53;1.00;;;;;;;10.42;100.00;101574.66;5024640;28;20424;-90
2022/09/02 02:41:51;;;;;;;1.80;0.93;;;;;;;10.60;100.00;101592.50;5029721;28;20415;-90
2022/09/02 02:44:26;;;;;;;1.55;1.02;;;;;;;10.54;100.00;101589.72;5013875;28;20490;-89
2022/09/02 02:47:00;;;;;;;1.83;1.00;;;;;;;10.58;100.00;101590.06;5013908;28;20434;-89
2022/09/02 02:49:37;;;;;;;5.60;1.35;;;;;;;10.49;100.00;101578.78;5010739;28;20422;-90
2022/09/02 02:52:05;;;;;;;1.70;0.90;;;;;;;10.42;100.00;101577.38;5029950;28;20897;-91
2022/09/02 02:54:35;;;;;;;1.60;1.10;;;;;;;10.39;100.00;101578.69;5011750;28;20934;-89
2022/09/02 02:57:10;;;;;;;1.75;1.00;;;;;;;10.46;100.00;101583.94;5018923;28;20413;-88
2022/09/02 02:59:43;;;;;;;2.65;0.95;;;;;;;10.51;100.00;101592.97;5004721;28;20433;-88
2022/09/02 03:02:17;;;;;;;1.70;1.00;;;;;;;10.46;100.00;101584.75;5018203;28;20428;-89
2022/09/02 03:04:53;;;;;;;1.42;0.93;;;;;;;10.45;100.00;101583.09;5001747;28;20424;-90
2022/09/02 03:07:26;;;;;;;2.25;1.00;;;;;;;10.43;100.00;101588.00;5027947;28;20434;-89
2022/09/02 03:10:02;;;;;;;2.28;1.00;;;;;;;10.39;100.00;101584.13;5011409;28;20430;-89
2022/09/02 03:12:37;;;;;;;2.60;1.10;;;;;;;10.26;100.00;101581.78;5012485;28;20427;-88
2022/09/02 03:15:07;;;;;;;3.13;1.20;;;;;;;10.31;100.00;101588.09;5027351;28;20419;-89
2022/09/02 03:17:41;;;;;;;1.48;1.00;;;;;;;10.26;100.00;101585.34;5024640;28;20424;-89
2022/09/02 03:20:11;;;;;;;2.88;1.10;;;;;;;10.28;100.00;101580.44;5029030;28;20419;-88
2022/09/02 03:22:50;;;;;;;1.35;1.10;;;;;;;10.38;100.00;101577.03;5022827;28;20430;-89
2022/09/02 03:25:21;;;;;;;1.40;1.00;;;;;;;10.23;100.00;101566.78;5027224;28;20434;-91
2022/09/02 03:27:50;;;;;;;2.57;1.10;;;;;;;10.26;100.00;101577.19;5021653;28;20429;-89
2022/09/02 03:30:26;;;;;;;1.60;1.00;;;;;;;10.28;100.00;101574.19;5015305;28;20804;-89
2022/09/02 03:32:55;;;;;;;2.75;1.10;;;;;;;10.24;100.00;101568.44;5013950;28;20785;-88
2022/09/02 03:35:30;;;;;;;1.55;1.00;;;;;;;10.15;100.00;101557.19;5012417;28;20419;-89
2022/09/02 03:37:59;;;;;;;1.27;0.90;;;;;;;10.09;100.00;101571.00;5017310;28;20431;-89
2022/09/02 03:40:34;;;;;;;2.13;1.00;;;;;;;10.12;100.00;101578.63;5014366;28;20422;-89
2022/09/02 03:43:04;;;;;;;1.90;1.20;;;;;;;10.01;100.00;101564.09;5024785;28;20417;-89
2022/09/02 03:45:40;;;;;;;4.00;1.10;;;;;;;10.10;100.00;101567.22;5035755;28;20912;-90
2022/09/02 03:48:12;;;;;;;1.48;1.00;;;;;;;9.98;100.00;101567.31;5017890;28;20417;-90
2022/09/02 03:50:46;;;;;;;1.73;1.02;;;;;;;10.01;100.00;101567.66;5014658;28;20637;-89
2022/09/02 03:53:18;;;;;;;1.80;1.08;;;;;;;10.04;100.00;101563.63;5012449;28;20422;-89
2022/09/02 03:55:58;;;;;;;2.13;0.93;;;;;;;10.06;100.00;101564.16;5012655;28;20426;-89
2022/09/02 03:58:32;;;;;;;1.27;1.05;;;;;;;10.04;100.00;101566.31;5020531;28;20437;-90
2022/09/02 04:01:07;;;;;;;2.70;1.20;;;;;;;9.95;100.00;101554.25;5005820;28;20468;-89
2022/09/02 04:03:40;;;;;;;1.87;1.03;;;;;;;10.02;100.00;101557.59;5012433;28;20423;-89
2022/09/02 04:06:15;;;;;;;3.10;1.10;;;;;;;9.96;100.00;101564.88;5032302;28;20434;-90
2022/09/02 04:08:44;;;;;;;2.85;1.20;;;;;;;9.94;100.00;101561.56;5032829;28;20918;-89
2022/09/02 04:11:16;;;;;;;3.88;1.30;;;;;;;9.92;100.00;101561.00;5035069;28;20439;-88
2022/09/02 04:13:48;;;;;;;1.95;1.15;;;;;;;9.92;100.00;101557.47;5016842;28;20415;-89
2022/09/02 04:16:27;;;;;;;2.55;1.10;;;;;;;9.72;100.00;101526.22;5015856;28;20427;-90
2022/09/02 04:19:05;;;;;;;1.60;1.10;;;;;;;9.91;100.00;101551.19;5007430;28;20420;-89
2022/09/02 04:21:35;;;;;;;2.00;1.20;;;;;;;9.78;100.00;101544.25;5034478;28;20426;-90
2022/09/02 04:24:11;;;;;;;2.05;1.17;;;;;;;9.88;100.00;101554.44;5034562;28;20431;-89
2022/09/02 04:26:44;;;;;;;2.00;1.30;;;;;;;9.84;100.00;101553.31;5017757;28;20423;-89
2022/09/02 04:29:12;;;;;;;1.33;1.02;;;;;;;9.85;100.00;101555.75;5017180;28;20418;-89
2022/09/02 04:31:42;;;;;;;2.72;1.20;;;;;;;9.79;100.00;101545.06;5006723;28;20426;-89
2022/09/02 04:34:15;;;;;;;2.10;1.20;;;;;;;9.71;100.00;101549.06;5031553;28;20415;-89
2022/09/02 04:36:51;;;;;;;2.88;1.20;;;;;;;9.74;100.00;101555.91;5013379;28;20435;-90
2022/09/02 04:39:25;;;;;;;2.25;1.20;;;;;;;9.70;100.00;101550.94;5032709;28;20903;-88
2022/09/02 04:41:54;;;;;;;2.83;1.30;;;;;;;9.63;100.00;101550.31;5035132;28;20419;-89
2022/09/02 04:44:24;;;;;;;3.33;1.23;;;;;;;9.55;100.00;101553.47;5031649;28;20435;-89
2022/09/02 04:46:58;;;;;;;2.25;1.40;;;;;;;9.46;100.00;101560.41;5012066;28;20431;-90
2022/09/02 04:49:30;;;;;;;2.70;1.40;;;;;;;9.57;100.00;101547.78;5015404;28;20419;-90
2022/09/02 04:51:59;;;;;;;2.53;1.47;;;;;;;9.57;100.00;101558.66;5018602;28;20419;-90
2022/09/02 04:54:30;;;;;;;3.80;1.40;;;;;;;9.69;100.00;101559.38;5031079;28;20442;-89
2022/09/02 04:57:06;;;;;;;3.38;1.35;;;;;;;9.57;100.00;101553.22;5022522;28;20434;-89
2022/09/02 04:59:35;;;;;;;2.38;1.40;;;;;;;9.73;100.00;101559.69;5031261;28;20783;-89
2022/09/02 05:02:11;;;;;;;2.43;1.40;;;;;;;9.74;100.00;101558.63;5015172;28;20438;-89
2022/09/02 05:04:40;;;;;;;2.42;1.20;;;;;;;9.90;100.00;101557.72;5014963;28;20422;-89
2022/09/02 05:07:20;;;;;;;2.67;1.20;;;;;;;10.02;100.00;101555.69;5007606;28;20431;-89
2022/09/02 05:09:56;;;;;;;3.00;1.27;;;;;;;10.34;100.00;101570.44;5013492;28;20901;-88
2022/09/02 05:12:27;;;;;;;1.87;1.20;;;;;;;10.54;100.00;101572.59;5014136;28;20428;-91
2022/09/02 05:15:00;;;;;;;1.77;1.20;;;;;;;10.48;100.00;101565.44;5011416;28;20446;-91
2022/09/02 05:17:35;;;;;;;2.05;1.10;;;;;;;10.46;100.00;101552.09;5012735;28;20434;-91
2022/09/02 05:20:08;;;;;;;2.10;1.10;;;;;;;10.60;100.00;101555.22;5030249;28;20430;-88
2022/09/02 05:22:37;;;;;;;2.30;1.40;;;;;;;10.80;100.00;101570.06;5004096;28;20779;-91
2022/09/02 05:25:08;;;;;;;2.03;1.20;;;;;;;10.88;100.00;101569.59;5004742;28;20424;-91
2022/09/02 05:27:39;;;;;;;1.27;1.10;;;;;;;10.76;100.00;101530.84;5031401;28;20423;-90
2022/09/02 05:30:09;;;;;;;3.53;1.20;;;;;;;11.05;100.00;101559.41;5030939;28;20415;-90
2022/09/02 05:32:40;;;;;;;3.53;1.30;;;;;;;11.09;100.00;101567.88;5013123;28;20434;-90
2022/09/02 05:35:15;;;;;;;2.90;1.38;;;;;;;11.19;100.00;101564.41;5028414;28;20448;-92
2022/09/02 05:37:50;;;;;;;3.30;1.33;;;;;;;11.29;100.00;101559.00;5030117;28;20899;-92
2022/09/02 05:40:25;;;;;;;2.28;1.23;;;;;;;11.46;100.00;101552.56;5030365;28;20416;-89
2022/09/02 05:42:54;;;;;;;1.83;1.30;;;;;;;11.66;100.00;101563.56;5025615;28;21154;-90
2022/09/02 05:45:28;;;;;;;3.50;1.40;;;;;;;11.54;100.00;101555.59;5023006;28;20788;-91
2022/09/02 05:49:04;;;;;;;7.25;1.20;;;;;;;11.70;100.00;101569.31;5021860;28;20415;-87
2022/09/02 05:50:55;;;;;;;1.80;1.10;;;;;;;11.87;100.00;101560.94;5026369;28;20429;-84
2022/09/02 05:53:25;;;;;;;2.00;1.20;;;;;;;12.19;100.00;101569.00;5007299;28;20432;-88
2022/09/02 05:55:54;;;;;;;2.20;1.08;;;;;;;12.06;100.00;101569.50;5013785;28;20430;-89
2022/09/02 05:58:30;;;;;;;2.28;1.15;;;;;;;11.90;100.00;101547.59;5011136;28;20935;-89
2022/09/02 06:00:58;;;;;;;2.80;1.10;;;;;;;12.31;100.00;101570.66;5027891;28;20411;-84
2022/09/02 06:03:32;;;;;;;2.53;1.10;;;;;;;12.51;100.00;101572.59;5011948;28;20423;-87
2022/09/02 06:06:07;;;;;;;2.05;1.20;;;;;;;12.65;100.00;101561.94;5013822;28;20420;-90
2022/09/02 06:08:39;;;;;;;2.28;1.02;;;;;;;12.73;100.00;101564.16;5023270;28;20423;-89
2022/09/02 06:11:13;;;;;;;2.03;1.15;;;;;;;12.81;100.00;101568.25;5022797;28;20434;-89
2022/09/02 06:13:43;;;;;;;1.90;1.15;;;;;;;12.80;100.00;101575.63;5003639;28;20438;-83
2022/09/02 06:16:18;;;;;;;4.10;1.13;;;;;;;12.65;100.00;101568.25;5025099;28;20427;-88
2022/09/02 06:18:52;;;;;;;2.80;1.30;;;;;;;12.93;100.00;101560.59;5029657;28;20789;-90
2022/09/02 06:21:26;;;;;;;3.90;1.00;;;;;;;13.01;100.00;101567.41;5029607;28;20450;-88
2022/09/02 06:23:59;;;;;;;2.33;1.10;;;;;;;13.07;100.00;101566.31;5013704;28;20931;-89
2022/09/02 06:26:28;;;;;;;1.90;1.00;;;;;;;13.15;100.00;101563.03;5014146;28;20771;-88
2022/09/02 06:29:03;;;;;;;1.35;0.90;;;;;;;13.35;100.00;101562.19;5028459;28;20442;-84
2022/09/02 06:31:33;;;;;;;1.75;1.05;;;;;;;13.47;100.00;101555.63;5012779;28;20780;-84
2022/09/02 06:34:11;;;;;;;2.90;0.90;;;;;;;13.54;100.00;101558.88;5012486;28;20407;-86
2022/09/02 06:36:46;;;;;;;1.67;0.90;;;;;;;13.48;100.00;101566.28;5016980;28;20427;-84
2022/09/02 06:39:24;;;;;;;3.40;1.20;;;;;;;13.63;100.00;101561.84;5012914;28;20430;-85
2022/09/02 06:41:58;;;;;;;4.40;1.00;;;;;;;13.63;100.00;101556.38;5014160;28;20930;-86
2022/09/02 06:44:44;;;;;;;4.45;1.02;;;;;;;13.80;100.00;101564.28;5009191;28;20422;-83
2022/09/02 06:47:12;;;;;;;1.33;0.88;;;;;;;13.88;100.00;101563.66;5026971;28;20441;-84
2022/09/02 06:49:40;;;;;;;2.10;1.00;;;;;;;14.04;100.00;101558.94;5003324;28;20431;-86
2022/09/02 06:52:14;;;;;;;1.70;1.02;;;;;;;13.93;100.00;101536.28;5028191;28;20783;-91
2022/09/02 06:54:43;;;;;;;1.40;0.90;;;;;;;13.77;100.00;101557.44;5027091;28;20438;-87
2022/09/02 06:57:17;;;;;;;2.45;1.20;;;;;;;14.05;100.00;101555.13;5028757;28;20427;-89
2022/09/02 06:59:47;;;;;;;1.35;0.90;;;;;;;14.04;100.00;101551.53;5028524;28;20430;-92
2022/09/02 07:02:21;;;;;;;1.65;0.80;;;;;;;14.14;100.00;101558.91;5010145;28;21121;-85
2022/09/02 07:05:09;;;;;;;2.15;0.90;;;;;;;14.32;100.00;101559.34;5023629;28;20426;-85
2022/09/02 07:07:42;;;;;;;1.90;0.90;;;;;;;14.46;100.00;101552.94;5005718;28;20427;-86
2022/09/02 07:10:16;;;;;;;0.98;0.77;;;;;;;14.35;100.00;101545.91;5025762;28;20438;-86
2022/09/02 07:12:53;;;;;;;2.88;0.90;;;;;;;14.61;100.00;101559.41;5018014;28;20419;-87
2022/09/02 07:15:23;;;;;;;3.63;0.88;;;;;;;14.85;100.00;101554.03;5029288;28;21104;-87
2022/09/02 07:17:56;;;;;;;3.85;1.60;;;;;;;14.94;100.00;101556.97;5011498;28;21229;-84
2022/09/02 07:20:33;;;;;;;4.50;1.00;;;;;;;14.62;100.00;101558.31;5025676;28;20419;-86
2022/09/02 07:23:07;;;;;;;3.40;0.90;;;;;;;15.12;100.00;101552.69;5003481;28;20487;-84
2022/09/02 07:25:41;;;;;;;2.28;0.88;;;;;;;15.01;100.00;101559.38;5007094;28;20442;-87
2022/09/02 07:28:14;;;;;;;1.10;0.80;;;;;;;14.77;100.00;101528.06;4998681;28;20422;-88
2022/09/02 07:30:45;;;;;;;4.90;0.80;;;;;;;15.17;100.00;101551.84;4995643;28;20435;-90
2022/09/02 07:33:16;;;;;;;1.45;0.90;;;;;;;15.11;100.00;101538.16;4995510;28;20426;-89
2022/09/02 07:35:46;;;;;;;2.60;1.00;;;;;;;15.06;100.00;101538.22;4999407;28;20429;-88
2022/09/02 07:38:21;;;;;;;1.10;0.70;;;;;;;15.42;100.00;101545.25;4998227;28;20944;-87
2022/09/02 07:40:50;;;;;;;3.50;0.93;;;;;;;15.40;100.00;101542.81;5000506;28;20438;-88
2022/09/02 07:43:25;;;;;;;5.38;0.90;;;;;;;15.54;100.00;101547.59;5002766;28;21113;-89
2022/09/02 07:45:55;;;;;;;1.30;1.00;;;;;;;15.24;100.00;101494.72;5009939;28;20437;-92
2022/09/02 07:48:25;;;;;;;1.48;1.00;;;;;;;15.53;100.00;101521.28;4998498;28;20433;-83
2022/09/02 07:50:54;;;;;;;2.22;0.85;;;;;;;15.67;100.00;101538.66;5021284;28;20423;-89
2022/09/02 07:53:28;;;;;;;1.48;0.80;;;;;;;15.72;100.00;101496.63;5011351;28;20774;-88
2022/09/02 07:56:03;;;;;;;1.30;0.70;;;;;;;16.05;100.00;101537.94;5017885;28;20429;-88
2022/09/02 07:58:38;;;;;;;0.93;0.70;;;;;;;16.04;100.00;101528.88;5004553;28;20839;-88
2022/09/02 08:01:08;;;;;;;3.25;1.27;;;;;;;16.19;100.00;101538.81;5019124;28;21622;-86
2022/09/02 08:03:43;;;;;;;4.60;2.10;;;;;;;16.20;100.00;101539.63;5001476;28;20421;-84
2022/09/02 08:06:17;;;;;;;2.85;1.35;;;;;;;16.19;100.00;101535.25;4999421;28;20791;-87
2022/09/02 08:08:50;;;;;;;1.17;0.80;;;;;;;16.09;100.00;101541.72;5017402;28;20441;-85
2022/09/02 08:11:18;;;;;;;1.80;0.80;;;;;;;16.15;100.00;101527.59;4998840;28;20449;-88
2022/09/02 08:13:47;;;;;;;1.65;0.70;;;;;;;16.37;100.00;101537.19;5007955;28;20458;-86
2022/09/02 08:16:17;;;;;;;1.23;0.70;;;;;;;16.27;100.00;101535.41;5007611;28;20801;-89
2022/09/02 08:18:50;;;;;;;1.52;0.70;;;;;;;16.34;100.00;101535.03;5018432;28;20430;-83
2022/09/02 08:21:24;;;;;;;1.17;0.80;;;;;;;16.45;100.00;101532.94;5023508;28;20418;-88
2022/09/02 08:23:52;;;;;;;2.17;0.77;;;;;;;16.47;100.00;101503.22;5001715;28;20440;-85
2022/09/02 08:26:24;;;;;;;2.33;0.77;;;;;;;16.36;100.00;101526.50;5005530;28;20493;-88
2022/09/02 08:28:52;;;;;;;1.55;0.80;;;;;;;16.63;100.00;101529.34;5001666;28;21407;-83
2022/09/02 08:31:27;;;;;;;1.80;0.80;;;;;;;16.54;100.00;101533.88;5025066;28;20438;-88
2022/09/02 08:34:03;;;;;;;2.47;0.85;;;;;;;16.26;100.00;101476.09;5021407;28;20418;-87
2022/09/02 08:36:38;;;;;;;3.25;1.13;;;;;;;16.57;100.00;101491.25;5022680;28;20437;-90
2022/09/02 08:39:07;;;;;;;2.00;1.10;;;;;;;16.77;100.00;101526.63;5020176;28;20417;-86
2022/09/02 08:41:46;;;;;;;8.27;3.70;;;;;;;16.84;100.00;101505.06;5008846;28;20423;-85
2022/09/02 08:44:22;;;;;;;1.70;1.02;;;;;;;17.12;100.00;101526.34;5018120;28;20935;-87
2022/09/02 08:47:03;;;;;;;2.45;1.08;;;;;;;17.20;100.00;101520.13;5022119;28;20430;-86
2022/09/02 08:49:40;;;;;;;1.92;0.90;;;;;;;17.36;100.00;101519.81;5004186;28;20443;-83
2022/09/02 08:52:20;;;;;;;1.35;0.85;;;;;;;17.14;100.00;101515.84;5022737;28;20435;-87
2022/09/02 08:54:55;;;;;;;1.88;0.90;;;;;;;17.20;100.00;101522.06;5013841;28;20433;-84
2022/09/02 08:57:28;;;;;;;2.50;1.00;;;;;;;17.05;100.00;101523.97;5033889;28;20512;-88
2022/09/02 09:00:02;;;;;;;1.40;0.90;;;;;;;17.32;100.00;101516.88;5019660;28;20447;-84
2022/09/02 09:02:46;;;;;;;3.03;1.10;;;;;;;17.15;100.00;101517.47;5028950;28;20506;-86
2022/09/02 09:05:30;;;;;;;1.40;0.88;;;;;;;17.00;100.00;101491.09;5030624;28;20430;-86
2022/09/02 09:08:11;;;;;;;1.58;0.82;;;;;;;17.43;100.00;101515.56;5026111;28;20427;-84
2022/09/02 09:10:56;;;;;;;6.33;0.97;;;;;;;17.25;100.00;101475.19;5027378;28;20450;-85
2022/09/02 09:13:50;;;;;;;1.67;0.90;;;;;;;17.50;100.00;101513.19;5031451;28;20950;-84
2022/09/02 09:16:35;;;;;;;2.37;0.80;;;;;;;17.43;100.00;101509.25;5012497;28;20803;-83
2022/09/02 09:19:21;;;;;;;2.83;1.00;;;;;;;17.55;100.00;101501.25;5030851;28;20903;-84
2022/09/02 09:21:56;;;;;;;1.90;0.90;;;;;;;17.74;100.00;101497.59;5030214;28;20938;-82
2022/09/02 09:24:35;;;;;;;1.98;0.80;;;;;;;17.58;100.00;101492.41;5032206;28;20411;-84
2022/09/02 09:27:05;;;;;;;2.53;0.90;;;;;;;17.55;100.00;101495.75;5014043;28;20430;-82
2022/09/02 09:29:39;;;;;;;1.55;0.98;;;;;;;17.69;100.00;101495.78;5026361;28;20423;-81
2022/09/02 09:32:22;;;;;;;1.58;0.98;;;;;;;17.83;100.00;101488.28;5028246;28;20443;-84
2022/09/02 09:35:03;;;;;;;1.02;0.80;;;;;;;17.87;100.00;101482.16;5032536;28;20771;-84
2022/09/02 09:37:38;;;;;;;2.95;0.98;;;;;;;17.97;100.00;101477.25;5025067;28;20422;-83
2022/09/02 09:40:25;;;;;;;1.35;0.90;;;;;;;18.08;100.00;101474.28;5012224;28;20426;-83
2022/09/02 09:43:12;;;;;;;1.58;0.80;;;;;;;18.23;100.00;101479.44;5029903;28;20429;-84
2022/09/02 09:45:46;;;;;;;1.52;0.93;;;;;;;18.06;100.00;101485.59;5030067;28;20891;-82
2022/09/02 09:48:26;;;;;;;2.55;0.80;;;;;;;17.89;100.00;101475.22;5013776;28;20430;-84
2022/09/02 09:51:16;;;;;;;1.40;0.85;;;;;;;18.18;100.00;101477.59;5030150;28;20434;-83
2022/09/02 09:53:45;;;;;;;2.10;0.93;;;;;;;17.98;100.00;101473.41;5004647;28;20765;-85
2022/09/02 09:56:29;;;;;;;1.63;0.93;;;;;;;18.07;100.00;101469.91;5011616;28;20427;-83
2022/09/02 09:59:02;;;;;;;1.90;0.80;;;;;;;18.30;99.50;101476.25;5027643;28;20426;-81
2022/09/02 10:01:36;;;;;;;1.60;0.80;;;;;;;18.46;100.00;101471.97;5030583;28;20434;-84
2022/09/02 10:04:18;;;;;;;1.23;0.90;;;;;;;18.50;100.00;101474.91;5015957;28;20419;-85
2022/09/02 10:06:53;;;;;;;1.60;0.80;;;;;;;18.74;100.00;101468.22;5011937;28;20420;-85
2022/09/02 10:09:33;;;;;;;1.25;0.80;;;;;;;18.54;100.00;101453.84;5029134;28;20422;-85
2022/09/02 10:12:03;;;;;;;1.90;1.00;;;;;;;18.73;100.00;101458.34;5003184;28;20426;-84
2022/09/02 10:14:39;;;;;;;1.00;0.80;;;;;;;18.94;96.00;101451.16;5020901;28;20935;-84
2022/09/02 10:17:24;;;;;;;2.97;0.90;;;;;;;18.84;99.03;101443.97;5031282;28;20442;-84
2022/09/02 10:20:06;;;;;;;2.03;1.02;;;;;;;18.72;100.00;101452.00;5029072;28;20915;-85
2022/09/02 10:23:03;;;;;;;1.10;0.82;;;;;;;18.78;100.00;101438.91;5006432;28;20438;-83
2022/09/02 10:25:51;;;;;;;2.60;0.90;;;;;;;18.58;99.04;101438.31;5029674;28;20917;-86
2022/09/02 10:28:35;;;;;;;2.30;1.00;;;;;;;18.65;100.00;101440.63;5030381;28;20414;-86
2022/09/02 10:31:15;;;;;;;2.90;1.10;;;;;;;18.58;100.00;101429.25;5025702;28;20445;-84
2022/09/02 10:34:00;;;;;;;3.25;1.10;;;;;;;18.91;100.00;101429.75;5012737;28;20411;-84
2022/09/02 10:36:37;;;;;;;1.38;1.00;;;;;;;18.83;100.00;101430.50;5010981;28;20423;-84
2022/09/02 10:39:22;;;;;;;1.98;0.82;;;;;;;18.90;100.00;101410.75;5026891;28;20431;-84
2022/09/02 10:41:55;;;;;;;1.60;1.00;;;;;;;19.15;95.40;101417.50;5012025;28;20430;-85
2022/09/02 10:44:32;;;;;;;1.42;1.05;;;;;;;19.38;99.33;101416.25;5027469;28;20423;-85
2022/09/02 10:47:13;;;;;;;1.45;1.08;;;;;;;19.25;99.58;101397.88;5030915;28;20415;-85
2022/09/02 10:50:07;;;;;;;2.63;1.00;;;;;;;19.28;93.03;101399.16;5019168;28;20420;-83
2022/09/02 10:52:56;;;;;;;1.60;1.02;;;;;;;19.50;100.00;101412.03;5004730;28;20440;-85
2022/09/02 10:55:41;;;;;;;2.28;1.02;;;;;;;19.48;87.76;101404.06;5009229;28;20423;-83
2022/09/02 10:58:20;;;;;;;1.30;0.90;;;;;;;19.58;94.88;101402.94;5021968;28;20435;-83
2022/09/02 11:00:56;;;;;;;1.93;1.00;;;;;;;19.69;92.71;101396.00;5024293;28;20438;-86
2022/09/02 11:03:30;;;;;;;1.27;0.93;;;;;;;19.68;88.92;101396.31;5000843;28;20449;-86
2022/09/02 11:06:09;;;;;;;4.72;0.95;;;;;;;20.02;91.75;101392.75;5003980;28;20425;-87
2022/09/02 11:08:47;;;;;;;1.15;0.90;;;;;;;20.19;97.39;101394.69;5015921;28;20432;-85
2022/09/02 11:11:22;;;;;;;2.00;1.17;;;;;;;20.08;93.33;101395.34;5009086;28;20427;-87
2022/09/02 11:14:02;;;;;;;5.38;1.00;;;;;;;20.15;86.95;101387.34;4991921;28;20435;-87
2022/09/02 11:16:35;;;;;;;1.90;1.20;;;;;;;20.17;96.69;101380.34;5004388;28;20430;-88
2022/09/02 11:19:12;;;;;;;2.30;1.10;;;;;;;20.39;96.06;101381.28;5004810;28;20413;-86
2022/09/02 11:21:58;;;;;;;3.35;1.42;;;;;;;19.83;90.18;101382.03;4995428;28;20422;-86
2022/09/02 11:24:36;;;;;;;7.47;1.40;;;;;;;19.56;89.69;101391.44;4992691;28;20422;-87
2022/09/02 11:27:12;;;;;;;1.77;1.42;;;;;;;19.50;100.00;101367.88;4991712;28;20479;-87
2022/09/02 11:29:59;;;;;;;0.60;0.60;;;;;;;19.57;77.77;101376.50;5007375;28;20419;-86
2022/09/02 11:32:40;;;;;;;2.90;0.90;;;;;;;19.48;92.35;101379.22;5004384;28;20771;-84
2022/09/02 11:35:19;;;;;;;2.95;1.08;;;;;;;19.25;87.29;101372.22;5011639;28;20993;-86
2022/09/02 11:37:57;;;;;;;2.67;1.20;;;;;;;19.62;88.77;101384.59;5006231;28;21052;-86
2022/09/02 11:40:29;;;;;;;1.95;0.98;;;;;;;19.79;89.86;101364.47;5009200;28;20434;-87
2022/09/02 11:43:31;;;;;;;1.55;1.00;;;;;;;20.14;89.81;101372.72;4991113;28;20423;-87
2022/09/02 11:46:32;;;;;;;1.45;0.93;;;;;;;20.13;85.21;101362.00;4987869;28;20428;-85
2022/09/02 11:49:22;;;;;;;1.52;0.95;;;;;;;20.37;85.28;101367.81;4989281;28;20769;-86
2022/09/02 11:52:08;;;;;;;2.60;1.17;;;;;;;20.00;89.71;101361.88;4993008;28;20419;-88
2022/09/02 11:54:45;;;;;;;2.55;1.05;;;;;;;20.05;82.38;101366.41;5012749;28;20667;-87